createdAt,value
2023-07-04T00:01:50.397Z,60.35
2023-07-04T00:04:21.058Z,61.11
2023-07-04T00:06:47.901Z,61.38
2023-07-04T00:09:16.447Z,60.50
2023-07-04T00:11:43.113Z,60.82
2023-07-04T00:14:10.442Z,60.17
2023-07-04T00:16:37.432Z,59.84
2023-07-04T00:19:04.340Z,59.31
2023-07-04T00:21:31.322Z,59.58
2023-07-04T00:23:57.976Z,59.43
2023-07-04T00:26:27.410Z,59.23
2023-07-04T00:28:54.882Z,59.42
2023-07-04T00:31:23.385Z,59.70
2023-07-04T00:33:50.164Z,59.47
2023-07-04T00:36:18.772Z,59.88
2023-07-04T00:38:47.068Z,59.88
2023-07-04T00:41:16.059Z,59.95
2023-07-04T00:43:49.587Z,60.34
2023-07-04T00:46:16.862Z,60.22
2023-07-04T00:48:44.779Z,60.40
2023-07-04T00:51:12.744Z,60.06
2023-07-04T00:53:39.460Z,60.50
2023-07-04T00:56:06.688Z,60.28
2023-07-04T00:58:33.381Z,59.40
2023-07-04T01:01:01.427Z,60.36
2023-07-04T01:03:28.653Z,60.02
2023-07-04T01:06:01.787Z,58.88
2023-07-04T01:08:37.228Z,60.21
2023-07-04T01:11:08.900Z,60.04
2023-07-04T01:13:37.607Z,59.81
2023-07-04T01:16:08.885Z,59.90
2023-07-04T01:18:36.459Z,59.63
2023-07-04T01:21:04.182Z,59.67
2023-07-04T01:23:39.649Z,59.68
2023-07-04T01:26:31.120Z,59.36
2023-07-04T01:28:59.760Z,59.61
2023-07-04T01:31:28.120Z,59.34
2023-07-04T01:33:55.421Z,60.31
2023-07-04T01:36:24.337Z,59.52
2023-07-04T01:38:51.033Z,60.06
2023-07-04T01:41:17.914Z,59.61
2023-07-04T01:43:51.017Z,60.40
2023-07-04T01:46:17.968Z,59.09
2023-07-04T01:48:44.714Z,59.12
2023-07-04T01:51:11.656Z,59.37
2023-07-04T01:53:38.330Z,59.20
2023-07-04T01:56:05.466Z,59.34
2023-07-04T01:58:32.255Z,59.82
2023-07-04T02:01:00.470Z,59.18
2023-07-04T02:03:27.238Z,59.21
2023-07-04T02:05:57.755Z,59.82
2023-07-04T02:08:24.488Z,59.55
2023-07-04T02:10:51.536Z,58.23
2023-07-04T02:13:18.613Z,58.60
2023-07-04T02:15:45.405Z,58.73
2023-07-04T02:18:13.501Z,58.95
2023-07-04T02:20:40.282Z,59.40
2023-07-04T02:23:07.097Z,59.37
2023-07-04T02:25:33.734Z,59.01
2023-07-04T02:28:00.493Z,59.33
2023-07-04T02:30:27.146Z,59.05
2023-07-04T02:32:53.912Z,59.49
2023-07-04T02:35:22.099Z,59.84
2023-07-04T02:37:48.800Z,59.50
2023-07-04T02:40:15.702Z,59.94
2023-07-04T02:42:42.411Z,59.74
2023-07-04T02:45:10.225Z,59.77
2023-07-04T02:47:37.095Z,59.64
2023-07-04T02:50:04.244Z,59.17
2023-07-04T02:52:32.368Z,58.77
2023-07-04T02:54:59.106Z,58.37
2023-07-04T02:57:25.835Z,58.36
2023-07-04T02:59:53.083Z,58.52
2023-07-04T03:02:20.408Z,58.53
2023-07-04T03:04:47.197Z,58.29
2023-07-04T03:07:13.868Z,57.87
2023-07-04T03:09:42.199Z,58.13
2023-07-04T03:12:09.566Z,58.12
2023-07-04T03:14:36.419Z,58.78
2023-07-04T03:17:03.508Z,58.07
2023-07-04T03:19:30.311Z,58.47
2023-07-04T03:21:59.537Z,58.52
2023-07-04T03:24:26.270Z,58.20
2023-07-04T03:26:54.343Z,58.41
2023-07-04T03:29:21.013Z,58.48
2023-07-04T03:31:47.728Z,58.43
2023-07-04T03:34:14.700Z,58.81
2023-07-04T03:36:41.506Z,58.77
2023-07-04T03:39:08.437Z,58.66
2023-07-04T03:41:35.129Z,58.94
2023-07-04T03:44:03.312Z,58.92
2023-07-04T03:46:30.024Z,58.93
2023-07-04T03:48:56.929Z,58.20
2023-07-04T03:51:23.702Z,58.29
2023-07-04T03:53:50.376Z,58.44
2023-07-04T03:56:17.373Z,58.07
2023-07-04T03:58:44.051Z,57.21
2023-07-04T04:01:12.271Z,55.71
2023-07-04T04:03:39.259Z,55.11
2023-07-04T04:06:06.906Z,55.21
2023-07-04T04:08:33.683Z,55.14
2023-07-04T04:11:00.652Z,55.18
2023-07-04T04:13:27.411Z,54.75
2023-07-04T04:15:54.227Z,54.34
2023-07-04T04:18:22.473Z,51.66
2023-07-04T04:20:49.344Z,51.11
2023-07-04T04:23:16.041Z,50.92
2023-07-04T04:25:42.814Z,52.32
2023-07-04T04:28:10.315Z,52.57
2023-07-04T04:30:37.468Z,52.39
2023-07-04T04:33:04.681Z,52.61
2023-07-04T04:35:32.925Z,53.66
2023-07-04T04:37:59.878Z,53.93
2023-07-04T04:40:26.728Z,52.95
2023-07-04T04:42:53.568Z,52.52
2023-07-04T04:45:20.866Z,53.25
2023-07-04T04:47:47.572Z,53.62
2023-07-04T04:50:14.393Z,53.21
2023-07-04T04:52:42.535Z,52.67
2023-07-04T04:55:10.025Z,53.62
2023-07-04T04:57:36.668Z,53.54
2023-07-04T05:00:04.088Z,53.40
2023-07-04T05:02:31.413Z,53.91
2023-07-04T05:04:58.741Z,54.37
2023-07-04T05:07:25.431Z,54.12
2023-07-04T05:09:55.267Z,54.49
2023-07-04T05:12:22.531Z,54.25
2023-07-04T05:14:49.460Z,54.63
2023-07-04T05:17:16.510Z,54.85
2023-07-04T05:19:43.915Z,55.63
2023-07-04T05:22:11.248Z,55.66
2023-07-04T05:24:37.993Z,54.94
2023-07-04T05:27:06.351Z,55.55
2023-07-04T05:29:33.171Z,55.20
2023-07-04T05:31:59.933Z,53.17
2023-07-04T05:34:27.104Z,53.38
2023-07-04T05:36:53.857Z,53.09
2023-07-04T05:39:20.585Z,53.67
2023-07-04T05:41:47.481Z,54.48
2023-07-04T05:44:15.600Z,54.74
2023-07-04T05:46:42.226Z,54.59
2023-07-04T05:49:08.931Z,55.72
2023-07-04T05:51:35.637Z,55.67
2023-07-04T05:54:02.346Z,55.37
2023-07-04T05:56:30.719Z,56.01
2023-07-04T05:58:59.396Z,56.32
2023-07-04T06:01:31.016Z,56.17
2023-07-04T06:03:57.945Z,55.83
2023-07-04T06:06:27.139Z,55.15
2023-07-04T06:08:55.614Z,55.06
2023-07-04T06:11:24.633Z,54.67
2023-07-04T06:13:51.799Z,56.71
2023-07-04T06:16:21.809Z,56.60
2023-07-04T06:18:50.911Z,55.60
2023-07-04T06:21:30.251Z,55.63
2023-07-04T06:24:06.110Z,56.15
2023-07-04T06:26:35.607Z,55.07
2023-07-04T06:29:05.951Z,53.97
2023-07-04T06:31:32.712Z,55.33
2023-07-04T06:34:01.221Z,52.96
2023-07-04T06:36:28.980Z,52.64
2023-07-04T06:39:00.443Z,52.56
2023-07-04T06:41:27.085Z,52.50
2023-07-04T06:43:53.814Z,52.28
2023-07-04T06:46:21.857Z,51.75
2023-07-04T06:48:49.517Z,52.22
2023-07-04T06:51:19.337Z,52.12
2023-07-04T06:53:47.211Z,51.96
2023-07-04T06:56:16.698Z,52.77
2023-07-04T06:58:46.899Z,52.72
2023-07-04T07:01:14.217Z,51.88
2023-07-04T07:03:41.094Z,52.06
2023-07-04T07:06:09.606Z,52.79
2023-07-04T07:08:38.296Z,52.39
2023-07-04T07:11:07.228Z,52.69
2023-07-04T07:13:35.324Z,50.90
2023-07-04T07:16:07.436Z,52.06
2023-07-04T07:18:34.514Z,51.00
2023-07-04T07:21:01.653Z,51.11
2023-07-04T07:23:28.646Z,49.50
2023-07-04T07:25:58.064Z,49.65
2023-07-04T07:28:25.591Z,48.74
2023-07-04T07:31:01.285Z,49.01
2023-07-04T07:33:28.057Z,48.69
2023-07-04T07:35:54.997Z,48.94
2023-07-04T07:38:21.865Z,48.23
2023-07-04T07:40:52.175Z,49.15
2023-07-04T07:43:20.923Z,48.73
2023-07-04T07:45:47.816Z,49.02
2023-07-04T07:48:15.046Z,48.95
2023-07-04T07:50:42.599Z,49.57
2023-07-04T07:53:10.283Z,50.31
2023-07-04T07:55:37.022Z,49.56
2023-07-04T07:58:03.775Z,50.13
2023-07-04T08:00:32.085Z,50.31
2023-07-04T08:02:58.884Z,50.55
2023-07-04T08:05:25.766Z,49.51
2023-07-04T08:07:52.604Z,48.24
2023-07-04T08:10:19.526Z,47.96
2023-07-04T08:12:46.411Z,49.17
2023-07-04T08:15:13.114Z,49.24
2023-07-04T08:17:41.397Z,48.39
2023-07-04T08:20:08.785Z,47.63
2023-07-04T08:22:35.458Z,48.18
2023-07-04T08:25:02.144Z,46.66
2023-07-04T08:27:28.866Z,47.62
2023-07-04T08:29:55.580Z,47.60
2023-07-04T08:32:22.339Z,46.39
2023-07-04T08:34:50.424Z,47.42
2023-07-04T08:37:17.231Z,46.56
2023-07-04T08:39:44.021Z,46.81
2023-07-04T08:42:11.041Z,45.95
2023-07-04T08:44:44.065Z,47.28
2023-07-04T08:47:13.464Z,46.79
2023-07-04T08:49:43.215Z,45.72
2023-07-04T08:52:18.142Z,45.35
2023-07-04T08:54:45.321Z,44.85
2023-07-04T08:57:20.723Z,44.15
2023-07-04T08:59:51.611Z,45.83
2023-07-04T09:02:38.790Z,44.17
2023-07-04T09:05:13.370Z,45.29
2023-07-04T09:07:51.537Z,45.86
2023-07-04T09:10:29.468Z,44.31
2023-07-04T09:12:56.612Z,43.32
2023-07-04T09:15:30.765Z,43.31
2023-07-04T09:18:20.751Z,44.11
2023-07-04T09:20:56.361Z,44.27
2023-07-04T09:23:25.794Z,44.89
2023-07-04T09:25:55.880Z,43.42
2023-07-04T09:28:22.777Z,43.87
2023-07-04T09:30:51.400Z,44.40
2023-07-04T09:33:19.896Z,44.41
2023-07-04T09:35:47.690Z,44.61
2023-07-04T09:38:14.433Z,43.85
2023-07-04T09:40:45.537Z,44.15
2023-07-04T09:43:24.507Z,43.98
2023-07-04T09:45:51.603Z,43.79
2023-07-04T09:48:25.098Z,43.51
2023-07-04T09:50:52.259Z,44.33
2023-07-04T09:53:20.101Z,43.88
2023-07-04T09:55:59.548Z,43.65
2023-07-04T09:58:26.625Z,43.13
2023-07-04T10:01:12.872Z,43.21
2023-07-04T10:03:40.979Z,42.47
2023-07-04T10:06:07.944Z,42.78
2023-07-04T10:08:49.591Z,41.67
2023-07-04T10:11:26.477Z,42.11
2023-07-04T10:14:00.501Z,42.73
2023-07-04T10:16:27.949Z,42.32
2023-07-04T10:19:03.654Z,42.47
2023-07-04T10:21:30.480Z,40.76
2023-07-04T10:23:57.345Z,42.73
2023-07-04T10:26:25.564Z,42.79
2023-07-04T10:28:53.317Z,41.85
2023-07-04T10:31:21.500Z,41.71
2023-07-04T10:33:52.281Z,42.00
2023-07-04T10:36:26.911Z,41.34
2023-07-04T10:38:56.749Z,41.49
2023-07-04T10:41:32.358Z,41.25
2023-07-04T10:44:04.564Z,42.04
2023-07-04T10:46:42.596Z,43.68
2023-07-04T10:49:16.532Z,44.20
2023-07-04T10:51:47.570Z,44.22
2023-07-04T10:54:14.307Z,42.55
2023-07-04T10:56:45.132Z,42.07
2023-07-04T10:59:15.351Z,43.07
2023-07-04T11:01:45.505Z,44.23
2023-07-04T11:04:18.649Z,44.17
2023-07-04T11:06:54.258Z,42.55
2023-07-04T11:09:21.247Z,42.13
2023-07-04T11:11:52.094Z,40.92
2023-07-04T11:14:24.662Z,43.11
2023-07-04T11:16:53.621Z,42.38
2023-07-04T11:19:23.413Z,41.11
2023-07-04T11:22:11.501Z,43.75
2023-07-04T11:24:44.764Z,42.62
2023-07-04T11:27:15.036Z,41.51
2023-07-04T11:29:50.835Z,41.54
2023-07-04T11:32:22.363Z,41.68
2023-07-04T11:34:51.365Z,41.75
2023-07-04T11:37:24.378Z,40.99
2023-07-04T11:39:55.310Z,40.58
2023-07-04T11:42:38.491Z,41.96
2023-07-04T11:45:08.647Z,40.68
2023-07-04T11:47:41.379Z,41.75
2023-07-04T11:50:13.697Z,42.06
2023-07-04T11:52:43.273Z,41.48
2023-07-04T11:55:15.207Z,40.26
2023-07-04T11:58:16.874Z,41.13
2023-07-04T12:01:14.416Z,41.83
2023-07-04T12:03:49.571Z,41.17
2023-07-04T12:06:39.549Z,40.83
2023-07-04T12:09:11.365Z,40.84
2023-07-04T12:11:43.459Z,40.73
2023-07-04T12:14:14.666Z,40.55
2023-07-04T12:16:42.608Z,40.65
2023-07-04T12:19:16.021Z,42.68
2023-07-04T12:21:43.946Z,41.90
2023-07-04T12:24:15.590Z,41.59
2023-07-04T12:26:42.334Z,41.51
2023-07-04T12:29:16.706Z,40.96
2023-07-04T12:31:45.351Z,41.17
2023-07-04T12:34:12.428Z,41.78
2023-07-04T12:36:39.492Z,41.59
2023-07-04T12:39:08.352Z,42.76
2023-07-04T12:41:36.286Z,40.70
2023-07-04T12:51:45.720Z,40.09
2023-07-04T12:54:14.577Z,40.42
2023-07-04T12:56:44.775Z,39.06
2023-07-04T12:59:32.864Z,38.88
2023-07-04T13:02:03.465Z,40.49
2023-07-04T13:04:31.778Z,39.67
2023-07-04T13:06:58.517Z,38.55
2023-07-04T13:09:25.226Z,39.13
2023-07-04T13:11:52.106Z,39.51
2023-07-04T13:14:24.770Z,38.42
2023-07-04T13:16:51.655Z,37.88
2023-07-04T13:19:20.232Z,36.43
2023-07-04T13:21:49.222Z,37.56
2023-07-04T13:27:14.292Z,37.46
2023-07-04T13:34:55.026Z,37.91
2023-07-04T13:37:24.982Z,39.33
2023-07-04T13:39:55.343Z,38.04
2023-07-04T13:42:22.691Z,38.28
2023-07-04T13:47:19.011Z,37.11
2023-07-04T13:49:45.686Z,36.68
2023-07-04T13:52:12.592Z,36.68
2023-07-04T13:54:40.685Z,37.53
2023-07-04T13:57:07.470Z,37.42
2023-07-04T13:59:34.183Z,37.75
2023-07-04T14:07:00.415Z,37.26
2023-07-04T14:09:27.241Z,37.71
2023-07-04T14:11:58.407Z,37.47
2023-07-04T14:21:53.996Z,38.33
2023-07-04T14:24:20.815Z,37.28
2023-07-04T14:26:47.507Z,38.53
2023-07-04T14:29:15.613Z,38.45
2023-07-04T14:31:42.389Z,38.87
2023-07-04T14:34:09.206Z,39.05
2023-07-04T14:36:36.784Z,39.39
2023-07-04T14:39:03.831Z,39.20
2023-07-04T14:44:15.278Z,38.82
2023-07-04T14:46:44.360Z,38.27
2023-07-04T14:49:11.884Z,38.96
2023-07-04T14:51:39.079Z,40.36
2023-07-04T14:54:19.996Z,38.27
2023-07-04T14:56:51.755Z,39.43
2023-07-04T14:59:23.383Z,38.98
2023-07-04T15:01:55.142Z,38.98
2023-07-04T15:04:21.877Z,38.65
2023-07-04T15:06:48.559Z,39.80
2023-07-04T15:09:15.345Z,39.12
2023-07-04T15:11:42.023Z,38.75
2023-07-04T15:14:08.790Z,38.61
2023-07-04T15:16:35.593Z,38.66
2023-07-04T15:19:03.800Z,39.78
2023-07-04T15:21:30.587Z,40.36
2023-07-04T15:23:57.533Z,39.31
2023-07-04T15:26:27.738Z,39.95
2023-07-04T15:28:55.442Z,40.53
2023-07-04T15:31:22.285Z,40.39
2023-07-04T15:33:50.777Z,40.72
2023-07-04T15:36:19.116Z,40.53
2023-07-04T15:38:46.447Z,40.27
2023-07-04T15:41:13.117Z,40.07
2023-07-04T15:43:40.081Z,41.49
2023-07-04T15:46:08.955Z,40.34
2023-07-04T15:48:36.056Z,40.42
2023-07-04T15:51:02.859Z,40.39
2023-07-04T15:53:31.901Z,40.41
2023-07-04T15:56:02.599Z,41.36
2023-07-04T15:58:29.731Z,43.19
2023-07-04T16:00:57.852Z,43.18
2023-07-04T16:03:25.370Z,43.33
2023-07-04T16:05:54.655Z,41.31
2023-07-04T16:08:22.379Z,40.81
2023-07-04T16:10:54.542Z,41.84
2023-07-04T16:13:21.929Z,41.77
2023-07-04T16:15:48.847Z,42.70
2023-07-04T16:18:15.805Z,40.50
2023-07-04T16:20:43.018Z,40.46
2023-07-04T16:23:11.345Z,40.00
2023-07-04T16:25:41.881Z,40.46
2023-07-04T16:28:10.469Z,39.73
2023-07-04T16:30:37.340Z,40.15
2023-07-04T16:33:04.295Z,39.69
2023-07-04T16:35:31.020Z,40.58
2023-07-04T16:37:57.700Z,40.90
2023-07-04T16:40:24.546Z,41.16
2023-07-04T16:42:51.579Z,41.37
2023-07-04T16:45:19.910Z,41.16
2023-07-04T16:47:46.864Z,40.58
2023-07-04T16:50:29.933Z,40.89
2023-07-04T16:52:58.185Z,40.19
2023-07-04T16:55:25.029Z,40.69
2023-07-04T16:57:52.137Z,41.42
2023-07-04T17:00:20.930Z,41.65
2023-07-04T17:02:55.187Z,41.96
2023-07-04T17:05:22.809Z,41.34
2023-07-04T17:07:49.609Z,42.14
2023-07-04T17:10:16.622Z,42.13
2023-07-04T17:12:43.345Z,43.07
2023-07-04T17:15:19.169Z,42.18
2023-07-04T17:17:47.894Z,42.46
2023-07-04T17:20:15.333Z,43.34
2023-07-04T17:22:42.025Z,43.54
2023-07-04T17:25:14.687Z,43.81
2023-07-04T17:27:42.309Z,44.36
2023-07-04T17:30:11.510Z,44.18
2023-07-04T17:32:39.174Z,43.14
2023-07-04T17:35:08.050Z,42.92
2023-07-04T17:37:38.997Z,44.04
2023-07-04T17:40:07.509Z,44.01
2023-07-04T17:42:34.200Z,43.74
2023-07-04T17:45:07.432Z,43.31
2023-07-04T17:47:34.264Z,44.05
2023-07-04T17:50:00.994Z,43.92
2023-07-04T17:52:29.394Z,43.18
2023-07-04T17:54:57.648Z,43.53
2023-07-04T17:57:27.617Z,43.27
2023-07-04T17:59:55.749Z,44.91
2023-07-04T18:02:22.672Z,44.24
2023-07-04T18:04:52.382Z,45.35
2023-07-04T18:07:19.439Z,44.76
2023-07-04T18:09:48.592Z,45.57
2023-07-04T18:12:15.716Z,45.50
2023-07-04T18:14:42.468Z,45.86
2023-07-04T18:17:09.228Z,45.94
2023-07-04T18:19:35.954Z,45.13
2023-07-04T18:22:02.805Z,45.70
2023-07-04T18:24:29.672Z,45.31
2023-07-04T18:26:57.803Z,45.54
2023-07-04T18:29:24.549Z,44.95
2023-07-04T18:31:51.450Z,46.09
2023-07-04T18:34:18.193Z,46.50
2023-07-04T18:36:46.242Z,46.66
2023-07-04T18:39:13.035Z,46.21
2023-07-04T18:41:41.507Z,46.08
2023-07-04T18:44:11.765Z,45.64
2023-07-04T18:46:41.869Z,45.79
2023-07-04T18:49:21.687Z,45.62
2023-07-04T18:51:48.414Z,46.25
2023-07-04T18:54:16.258Z,47.27
2023-07-04T18:56:44.259Z,48.22
2023-07-04T18:59:17.090Z,49.05
2023-07-04T19:01:44.617Z,47.43
2023-07-04T19:04:12.042Z,46.66
2023-07-04T19:06:42.470Z,47.13
2023-07-04T19:09:10.370Z,47.35
2023-07-04T19:11:39.008Z,49.17
2023-07-04T19:14:09.951Z,50.06
2023-07-04T19:16:43.429Z,50.24
2023-07-04T19:19:10.479Z,50.18
2023-07-04T19:21:38.103Z,49.72
2023-07-04T19:24:05.514Z,51.09
2023-07-04T19:26:32.281Z,51.65
2023-07-04T19:28:58.940Z,52.06
2023-07-04T19:31:25.868Z,51.87
2023-07-04T19:33:53.879Z,51.64
2023-07-04T19:36:22.854Z,52.48
2023-07-04T19:38:49.526Z,52.92
2023-07-04T19:41:16.257Z,52.31
2023-07-04T19:43:43.023Z,52.51
2023-07-04T19:46:10.018Z,53.43
2023-07-04T19:48:38.108Z,53.44
2023-07-04T19:51:08.136Z,52.89
2023-07-04T19:53:37.971Z,53.60
2023-07-04T19:56:07.542Z,53.63
2023-07-04T19:58:34.737Z,53.80
2023-07-04T20:01:05.614Z,54.86
2023-07-04T20:03:33.886Z,54.92
2023-07-04T20:06:01.247Z,55.36
2023-07-04T20:08:29.738Z,55.34
2023-07-04T20:10:56.908Z,55.87
2023-07-04T20:13:24.456Z,56.03
2023-07-04T20:15:52.045Z,56.46
2023-07-04T20:18:19.630Z,56.55
2023-07-04T20:20:47.819Z,56.81
2023-07-04T20:23:14.550Z,57.72
2023-07-04T20:25:43.121Z,57.22
2023-07-04T20:28:10.663Z,57.64
2023-07-04T20:30:39.264Z,58.01
2023-07-04T20:33:07.098Z,58.30
2023-07-04T20:35:34.298Z,58.79
2023-07-04T20:38:02.060Z,58.78
2023-07-04T20:40:29.594Z,58.76
2023-07-04T20:42:59.545Z,59.03
2023-07-04T20:45:26.419Z,59.30
2023-07-04T20:47:53.164Z,59.34
2023-07-04T20:50:20.804Z,60.05
2023-07-04T20:52:47.509Z,59.72
2023-07-04T20:55:14.889Z,59.65
2023-07-04T20:57:41.590Z,59.77
2023-07-04T21:00:10.667Z,59.80
2023-07-04T21:02:37.588Z,59.70
2023-07-04T21:05:04.689Z,60.05
2023-07-04T21:07:31.421Z,60.45
2023-07-04T21:09:58.226Z,60.97
2023-07-04T21:12:25.275Z,61.42
2023-07-04T21:14:51.986Z,61.50
2023-07-04T21:17:20.273Z,62.01
2023-07-04T21:19:47.007Z,61.90
2023-07-04T21:22:13.798Z,62.08
2023-07-04T21:24:40.552Z,62.51
2023-07-04T21:27:07.598Z,62.63
2023-07-04T21:29:34.349Z,62.75
2023-07-04T21:32:01.091Z,62.85
2023-07-04T21:34:29.208Z,63.04
2023-07-04T21:36:55.894Z,63.08
2023-07-04T21:39:22.670Z,63.45
2023-07-04T21:41:49.394Z,63.99
2023-07-04T21:44:16.133Z,63.73
2023-07-04T21:46:42.894Z,64.08
2023-07-04T21:49:11.299Z,64.16
2023-07-04T21:51:39.373Z,64.88
2023-07-04T21:54:06.071Z,64.81
2023-07-04T21:56:33.130Z,64.75
2023-07-04T21:59:00.765Z,65.08
2023-07-04T22:01:27.577Z,65.30
2023-07-04T22:03:54.382Z,65.08
2023-07-04T22:06:21.112Z,65.20
2023-07-04T22:08:49.274Z,65.36
2023-07-04T22:11:16.725Z,65.54
2023-07-04T22:13:45.421Z,65.47
2023-07-04T22:16:14.990Z,65.56
2023-07-04T22:18:42.156Z,65.67
2023-07-04T22:21:10.061Z,65.35
2023-07-04T22:23:37.625Z,65.75
2023-07-04T22:26:06.379Z,65.93
2023-07-04T22:28:33.272Z,65.88
2023-07-04T22:31:01.536Z,66.02
2023-07-04T22:33:29.707Z,66.58
2023-07-04T22:35:58.033Z,66.49
2023-07-04T22:38:25.121Z,66.57
2023-07-04T22:40:52.465Z,66.51
2023-07-04T22:43:20.915Z,66.79
2023-07-04T22:45:50.901Z,66.90
2023-07-04T22:48:18.197Z,67.08
2023-07-04T22:50:44.855Z,67.17
2023-07-04T22:53:11.779Z,67.07
2023-07-04T22:55:40.162Z,67.13
2023-07-04T22:58:06.961Z,67.40
2023-07-04T23:00:36.788Z,68.00
2023-07-04T23:03:03.978Z,67.91
2023-07-04T23:05:30.913Z,68.02
2023-07-04T23:07:57.998Z,68.08
2023-07-04T23:10:24.973Z,68.44
2023-07-04T23:12:51.718Z,68.52
2023-07-04T23:15:18.518Z,68.38
2023-07-04T23:17:46.905Z,68.38
2023-07-04T23:20:13.773Z,68.22
2023-07-04T23:22:40.658Z,68.72
2023-07-04T23:25:08.904Z,68.94
2023-07-04T23:27:35.701Z,68.68
2023-07-04T23:30:03.054Z,68.72
2023-07-04T23:32:29.826Z,68.66
2023-07-04T23:34:58.302Z,68.48
2023-07-04T23:37:25.543Z,68.81
2023-07-04T23:39:52.403Z,68.84
2023-07-04T23:42:19.414Z,68.84
2023-07-04T23:44:46.103Z,68.85
2023-07-04T23:47:12.931Z,69.06
2023-07-04T23:49:39.865Z,68.85
2023-07-04T23:52:08.158Z,68.89
2023-07-04T23:54:34.861Z,69.08
2023-07-04T23:57:01.617Z,69.14
2023-07-04T23:59:28.361Z,69.74
